Time;durP1;ratioP1;P1;durP2;ratioP2;P2;SDS_P1;SDS_P2;PMS_P1;PMS_P2;Temp;Humidity;BMP_temperature;BMP_pressure;BME280_temperature;BME280_humidity;BME280_pressure;Samples;Min_cycle;Max_cycle;Signal;HPM_P1;HPM_P2
2022/04/15 00:02:19;;;;;;;37.80;19.80;;;;;;;;;;6114956;29;20663;-90
2022/04/15 00:05:40;;;;;;;44.10;20.55;;;;;;;;;;6112037;29;20020;-91
2022/04/15 00:08:40;;;;;;;45.85;20.70;;;;;;;;;;6106132;29;20024;-91
2022/04/15 00:11:41;;;;;;;39.03;19.13;;;;;;;;;;6128198;29;20466;-91
2022/04/15 00:14:41;;;;;;;44.80;22.05;;;;;;;;;;6122216;28;20044;-91
2022/04/15 00:17:41;;;;;;;45.47;20.33;;;;;;;;;;6128292;29;20110;-91
2022/04/15 00:20:42;;;;;;;38.53;19.92;;;;;;;;;;6130583;29;20035;-91
2022/04/15 00:23:42;;;;;;;43.13;21.58;;;;;;;;;;6130763;29;20043;-90
2022/04/15 00:26:42;;;;;;;40.97;19.30;;;;;;;;;;6131126;29;20043;-91
2022/04/15 00:29:42;;;;;;;41.00;19.15;;;;;;;;;;6129830;29;20020;-91
2022/04/15 00:32:43;;;;;;;40.28;19.80;;;;;;;;;;6130405;29;20100;-91
2022/04/15 00:35:43;;;;;;;40.95;19.52;;;;;;;;;;6117160;29;20063;-90
2022/04/15 00:38:43;;;;;;;37.78;19.02;;;;;;;;;;6127378;29;20031;-91
2022/04/15 00:41:43;;;;;;;48.58;20.65;;;;;;;;;;6136547;29;20071;-91
2022/04/15 00:44:44;;;;;;;49.00;20.40;;;;;;;;;;6136281;28;20023;-91
2022/04/15 00:47:48;;;;;;;50.33;23.90;;;;;;;;;;6137193;28;20266;-91
2022/04/15 00:50:48;;;;;;;52.78;24.95;;;;;;;;;;6137196;28;20347;-91
2022/04/15 00:53:49;;;;;;;42.10;21.50;;;;;;;;;;6138098;28;20042;-91
2022/04/15 00:56:50;;;;;;;45.15;23.38;;;;;;;;;;6125906;29;20286;-91
2022/04/15 00:59:51;;;;;;;46.77;21.87;;;;;;;;;;6117000;28;20039;-91
2022/04/15 01:02:52;;;;;;;49.22;22.17;;;;;;;;;;6126398;29;20031;-91
2022/04/15 01:05:54;;;;;;;52.80;22.88;;;;;;;;;;6133420;29;20024;-91
2022/04/15 01:08:55;;;;;;;35.83;19.42;;;;;;;;;;6122643;29;20023;-91
2022/04/15 01:11:55;;;;;;;45.65;20.75;;;;;;;;;;6132850;29;20102;-90
2022/04/15 01:14:59;;;;;;;37.00;19.70;;;;;;;;;;6133166;29;20027;-91
2022/04/15 01:17:59;;;;;;;47.13;21.88;;;;;;;;;;6131550;29;20449;-90
2022/04/15 01:21:00;;;;;;;45.20;23.70;;;;;;;;;;6132807;29;20023;-90
2022/04/15 01:24:00;;;;;;;52.42;26.98;;;;;;;;;;6133534;29;20293;-90
2022/04/15 01:27:01;;;;;;;53.97;26.90;;;;;;;;;;6132881;29;20465;-90
2022/04/15 01:30:02;;;;;;;51.15;23.48;;;;;;;;;;6133438;29;20903;-90
2022/04/15 01:33:03;;;;;;;54.60;22.83;;;;;;;;;;6134438;29;20122;-90
2022/04/15 01:36:03;;;;;;;45.08;21.77;;;;;;;;;;6149023;29;20059;-90
2022/04/15 01:39:03;;;;;;;44.28;22.63;;;;;;;;;;6112915;28;20117;-91
2022/04/15 01:42:04;;;;;;;42.70;20.52;;;;;;;;;;6141945;28;20035;-90
2022/04/15 01:45:05;;;;;;;37.38;20.27;;;;;;;;;;6132165;29;20030;-90
2022/04/15 01:48:06;;;;;;;39.70;18.92;;;;;;;;;;6132686;29;20447;-91
2022/04/15 01:51:06;;;;;;;42.42;18.23;;;;;;;;;;6131101;29;20109;-90
2022/04/15 01:54:06;;;;;;;38.58;17.98;;;;;;;;;;6119710;28;20027;-91
2022/04/15 01:57:07;;;;;;;30.70;16.02;;;;;;;;;;6131907;29;20121;-91
2022/04/15 02:00:07;;;;;;;34.78;16.58;;;;;;;;;;6131898;29;20517;-91
2022/04/15 02:03:07;;;;;;;36.72;19.75;;;;;;;;;;6146641;29;20447;-91
2022/04/15 02:06:08;;;;;;;33.70;18.08;;;;;;;;;;6112179;29;20031;-91
2022/04/15 02:09:08;;;;;;;33.35;17.70;;;;;;;;;;6129969;28;20031;-90
2022/04/15 02:12:08;;;;;;;32.80;17.75;;;;;;;;;;6150081;29;20050;-91
2022/04/15 02:15:09;;;;;;;33.17;17.65;;;;;;;;;;6129844;29;20109;-90
2022/04/15 02:18:09;;;;;;;30.60;16.75;;;;;;;;;;6107966;29;20376;-90
2022/04/15 02:21:09;;;;;;;36.40;19.30;;;;;;;;;;6108503;29;20053;-91
2022/04/15 02:24:10;;;;;;;32.08;19.45;;;;;;;;;;6110311;28;20147;-90
2022/04/15 02:27:10;;;;;;;32.85;18.83;;;;;;;;;;6131501;29;20046;-91
2022/04/15 02:30:10;;;;;;;37.83;19.27;;;;;;;;;;6148739;29;20019;-91
2022/04/15 02:33:10;;;;;;;34.28;17.85;;;;;;;;;;6133607;29;20043;-91
2022/04/15 02:36:11;;;;;;;41.93;18.60;;;;;;;;;;6131752;29;20063;-91
2022/04/15 02:39:11;;;;;;;29.90;16.83;;;;;;;;;;6148559;28;20274;-91
2022/04/15 02:42:11;;;;;;;36.08;21.30;;;;;;;;;;6135748;29;20680;-91
2022/04/15 02:45:12;;;;;;;32.63;20.35;;;;;;;;;;6110557;29;20044;-91
2022/04/15 02:48:12;;;;;;;34.60;18.55;;;;;;;;;;6107702;29;20027;-90
2022/04/15 02:51:17;;;;;;;26.92;17.38;;;;;;;;;;6119003;29;20122;-91
2022/04/15 02:54:17;;;;;;;28.25;16.90;;;;;;;;;;6131767;29;20702;-91
2022/04/15 02:57:17;;;;;;;32.93;18.00;;;;;;;;;;6131584;29;20062;-90
2022/04/15 03:00:17;;;;;;;26.37;18.60;;;;;;;;;;6131797;29;20291;-91
2022/04/15 03:03:18;;;;;;;30.08;16.08;;;;;;;;;;6119514;29;20283;-91
2022/04/15 03:06:18;;;;;;;25.95;16.45;;;;;;;;;;6108420;29;20028;-91
2022/04/15 03:09:18;;;;;;;32.28;17.05;;;;;;;;;;6111004;29;20020;-91
2022/04/15 03:12:18;;;;;;;28.90;17.30;;;;;;;;;;6112202;29;20032;-91
2022/04/15 03:15:19;;;;;;;28.83;14.43;;;;;;;;;;6107256;29;20128;-90
2022/04/15 03:18:19;;;;;;;24.15;15.32;;;;;;;;;;6107059;29;20267;-91
2022/04/15 03:21:19;;;;;;;25.17;14.70;;;;;;;;;;6129905;28;20027;-91
2022/04/15 03:24:19;;;;;;;32.10;15.77;;;;;;;;;;6129623;29;20277;-90
2022/04/15 03:27:20;;;;;;;24.65;16.35;;;;;;;;;;6129534;29;20255;-91
2022/04/15 03:30:20;;;;;;;25.92;15.10;;;;;;;;;;6129573;29;20365;-91
2022/04/15 03:33:20;;;;;;;21.93;12.97;;;;;;;;;;6144626;29;20035;-90
2022/04/15 03:36:20;;;;;;;24.20;13.27;;;;;;;;;;6127689;29;20299;-91
2022/04/15 03:39:21;;;;;;;28.20;14.90;;;;;;;;;;6127321;29;20074;-91
2022/04/15 03:42:21;;;;;;;23.97;13.47;;;;;;;;;;6129970;29;20035;-91
2022/04/15 03:45:22;;;;;;;25.33;12.73;;;;;;;;;;6130921;29;20275;-91
2022/04/15 03:48:22;;;;;;;21.42;13.65;;;;;;;;;;6128781;29;20289;-90
2022/04/15 03:51:23;;;;;;;22.15;11.90;;;;;;;;;;6128549;29;20557;-91
2022/04/15 03:54:23;;;;;;;24.42;11.50;;;;;;;;;;6129470;28;20051;-91
2022/04/15 03:57:23;;;;;;;19.08;10.68;;;;;;;;;;6129474;29;20399;-91
2022/04/15 04:00:24;;;;;;;18.85;10.63;;;;;;;;;;6130029;29;20081;-90
2022/04/15 04:03:24;;;;;;;18.52;11.13;;;;;;;;;;6129966;29;20498;-90
2022/04/15 04:06:24;;;;;;;17.23;9.20;;;;;;;;;;6129134;29;20102;-90
2022/04/15 04:09:25;;;;;;;14.43;8.55;;;;;;;;;;6130432;29;20852;-90
2022/04/15 04:12:25;;;;;;;15.50;8.73;;;;;;;;;;6128122;29;20027;-90
2022/04/15 04:15:25;;;;;;;16.65;8.70;;;;;;;;;;6127836;29;20015;-90
2022/04/15 04:18:25;;;;;;;13.30;7.60;;;;;;;;;;6127976;29;20016;-90
2022/04/15 04:21:26;;;;;;;15.53;8.23;;;;;;;;;;6128784;29;20758;-89
2022/04/15 04:24:26;;;;;;;15.30;7.83;;;;;;;;;;6128538;29;20305;-90
2022/04/15 04:27:26;;;;;;;27.10;14.30;;;;;;;;;;6127220;29;20271;-89
2022/04/15 04:30:26;;;;;;;26.27;14.18;;;;;;;;;;6143301;29;20399;-88
2022/04/15 04:33:27;;;;;;;29.02;16.35;;;;;;;;;;6143896;28;20023;-88
2022/04/15 04:36:27;;;;;;;26.47;15.60;;;;;;;;;;6147256;28;20059;-88
2022/04/15 04:39:29;;;;;;;29.10;16.20;;;;;;;;;;6118297;29;20278;-89
2022/04/15 04:42:29;;;;;;;23.48;16.65;;;;;;;;;;6130507;29;20034;-89
2022/04/15 04:45:30;;;;;;;23.80;15.60;;;;;;;;;;6131135;29;20031;-90
2022/04/15 04:48:30;;;;;;;21.90;11.93;;;;;;;;;;6148667;29;20055;-90
2022/04/15 04:51:30;;;;;;;18.88;12.50;;;;;;;;;;6134678;29;20027;-90
2022/04/15 04:54:31;;;;;;;20.85;12.02;;;;;;;;;;6117202;28;20031;-90
2022/04/15 04:57:31;;;;;;;18.95;11.40;;;;;;;;;;6131910;29;20023;-90
2022/04/15 05:00:32;;;;;;;20.55;11.10;;;;;;;;;;6130741;29;20688;-91
2022/04/15 05:03:32;;;;;;;17.77;11.07;;;;;;;;;;6150253;29;20023;-90
2022/04/15 05:06:32;;;;;;;19.57;11.33;;;;;;;;;;6114020;29;20114;-90
2022/04/15 05:09:32;;;;;;;19.23;11.95;;;;;;;;;;6129952;29;20354;-90
2022/04/15 05:12:33;;;;;;;21.50;10.87;;;;;;;;;;6149762;29;20065;-90
2022/04/15 05:15:33;;;;;;;21.52;12.25;;;;;;;;;;6150520;29;20310;-90
2022/04/15 05:18:34;;;;;;;22.30;11.80;;;;;;;;;;6151690;29;20753;-89
2022/04/15 05:21:35;;;;;;;19.33;10.80;;;;;;;;;;6134022;29;20903;-89
2022/04/15 05:24:35;;;;;;;18.70;11.25;;;;;;;;;;6132934;28;20079;-89
2022/04/15 05:27:35;;;;;;;21.73;11.88;;;;;;;;;;6122868;29;20541;-90
2022/04/15 05:30:35;;;;;;;16.37;11.50;;;;;;;;;;6148824;29;20079;-90
2022/04/15 05:33:36;;;;;;;19.40;12.20;;;;;;;;;;6136230;28;20270;-90
2022/04/15 05:36:36;;;;;;;21.60;11.93;;;;;;;;;;6140304;28;20644;-90
2022/04/15 05:39:36;;;;;;;19.75;10.70;;;;;;;;;;6132429;29;20054;-90
2022/04/15 05:42:36;;;;;;;25.10;13.50;;;;;;;;;;6132460;29;20026;-90
2022/04/15 05:45:37;;;;;;;27.50;14.33;;;;;;;;;;6148666;28;20311;-90
2022/04/15 05:48:37;;;;;;;35.67;18.38;;;;;;;;;;6131938;29;20358;-90
2022/04/15 05:51:37;;;;;;;32.22;15.93;;;;;;;;;;6148451;29;20015;-89
2022/04/15 05:54:37;;;;;;;23.63;14.23;;;;;;;;;;6147550;29;20033;-89
2022/04/15 05:57:37;;;;;;;23.23;15.00;;;;;;;;;;6129605;29;20280;-89
2022/04/15 06:00:38;;;;;;;25.60;15.32;;;;;;;;;;6130587;29;20702;-89
2022/04/15 06:03:38;;;;;;;28.33;17.10;;;;;;;;;;6128456;29;20114;-89
2022/04/15 06:06:39;;;;;;;32.93;18.20;;;;;;;;;;6148038;29;20102;-89
2022/04/15 06:09:39;;;;;;;32.67;20.50;;;;;;;;;;6134443;29;20386;-89
2022/04/15 06:12:57;;;;;;;30.50;19.53;;;;;;;;;;6129817;28;20042;-89
2022/04/15 06:15:58;;;;;;;33.90;21.58;;;;;;;;;;6128252;28;20289;-89
2022/04/15 06:18:59;;;;;;;43.33;23.38;;;;;;;;;;6126529;29;20356;-89
2022/04/15 06:21:59;;;;;;;36.53;22.38;;;;;;;;;;6149244;28;20038;-89
2022/04/15 06:24:59;;;;;;;44.30;25.83;;;;;;;;;;6131159;28;20042;-90
2022/04/15 06:27:59;;;;;;;45.33;25.70;;;;;;;;;;6129529;29;20287;-89
2022/04/15 06:30:59;;;;;;;40.40;23.73;;;;;;;;;;6124987;29;20369;-89
2022/04/15 06:34:00;;;;;;;42.45;26.63;;;;;;;;;;6126925;28;20390;-90
2022/04/15 06:37:00;;;;;;;41.08;25.50;;;;;;;;;;6125156;29;20069;-91
2022/04/15 06:40:00;;;;;;;38.78;25.23;;;;;;;;;;6128465;29;20043;-89
2022/04/15 06:43:00;;;;;;;36.03;23.83;;;;;;;;;;6122866;29;20226;-90
2022/04/15 06:46:03;;;;;;;39.65;23.85;;;;;;;;;;6128205;29;20741;-90
2022/04/15 06:49:03;;;;;;;38.00;23.33;;;;;;;;;;6143445;29;20019;-90
2022/04/15 06:52:03;;;;;;;38.30;22.03;;;;;;;;;;6144168;29;20436;-90
2022/04/15 06:55:04;;;;;;;35.58;21.85;;;;;;;;;;6126855;29;20703;-90
2022/04/15 06:58:05;;;;;;;30.75;20.50;;;;;;;;;;6124548;29;20023;-90
2022/04/15 07:01:05;;;;;;;31.42;21.08;;;;;;;;;;6126695;29;20031;-90
2022/04/15 07:04:06;;;;;;;33.70;20.87;;;;;;;;;;6126351;29;20035;-90
2022/04/15 07:07:06;;;;;;;32.50;21.52;;;;;;;;;;6125995;29;20278;-90
2022/04/15 07:10:07;;;;;;;38.25;21.40;;;;;;;;;;6142271;29;20379;-89
2022/04/15 07:13:08;;;;;;;31.13;18.60;;;;;;;;;;6119987;29;20027;-89
2022/04/15 07:16:08;;;;;;;32.58;17.88;;;;;;;;;;6126055;29;20023;-90
2022/04/15 07:19:08;;;;;;;37.17;19.55;;;;;;;;;;6126774;29;20059;-90
2022/04/15 07:22:09;;;;;;;39.30;22.05;;;;;;;;;;6128513;29;20030;-89
2022/04/15 07:28:18;;;;;;;40.58;25.27;;;;;;;;;;6129431;28;20300;-78
2022/04/15 07:31:18;;;;;;;50.25;31.42;;;;;;;;;;6128819;29;20019;-79
2022/04/15 07:34:18;;;;;;;71.55;41.35;;;;;;;;;;6144186;29;20466;-78
2022/04/15 07:37:19;;;;;;;50.78;29.63;;;;;;;;;;6128871;29;20026;-81
2022/04/15 07:40:19;;;;;;;48.83;31.30;;;;;;;;;;6131112;28;20113;-81
2022/04/15 07:43:19;;;;;;;45.83;28.77;;;;;;;;;;6145930;28;20386;-81
2022/04/15 07:46:19;;;;;;;56.10;34.70;;;;;;;;;;6166498;28;20359;-80
2022/04/15 07:49:20;;;;;;;46.87;27.90;;;;;;;;;;6152913;28;20822;-81
2022/04/15 07:52:20;;;;;;;49.75;30.13;;;;;;;;;;6143433;29;20369;-81
2022/04/15 07:55:20;;;;;;;43.73;26.73;;;;;;;;;;6144601;28;20034;-80
2022/04/15 07:58:20;;;;;;;47.92;27.70;;;;;;;;;;6144775;29;20625;-80
2022/04/15 08:01:21;;;;;;;40.43;24.80;;;;;;;;;;6127738;29;20027;-79
2022/04/15 08:04:21;;;;;;;37.83;24.90;;;;;;;;;;6145118;29;20282;-80
2022/04/15 08:07:22;;;;;;;46.63;28.38;;;;;;;;;;6143289;28;20029;-79
2022/04/15 08:10:23;;;;;;;52.60;30.35;;;;;;;;;;6149767;28;20517;-79
2022/04/15 08:13:23;;;;;;;89.03;50.88;;;;;;;;;;6137514;29;20046;-80
2022/04/15 08:16:24;;;;;;;56.95;34.38;;;;;;;;;;6148262;29;20048;-80
2022/04/15 08:19:25;;;;;;;56.22;30.63;;;;;;;;;;6137274;28;20085;-80
2022/04/15 08:22:25;;;;;;;58.42;32.67;;;;;;;;;;6147740;29;20207;-80
2022/04/15 08:25:26;;;;;;;52.00;30.20;;;;;;;;;;6149176;28;20023;-81
2022/04/15 08:28:26;;;;;;;56.53;31.83;;;;;;;;;;6131781;29;20271;-81
2022/04/15 08:31:27;;;;;;;40.97;24.65;;;;;;;;;;6130508;28;20031;-81
2022/04/15 08:34:27;;;;;;;33.58;21.45;;;;;;;;;;6148557;29;20062;-81
2022/04/15 08:37:27;;;;;;;29.73;18.40;;;;;;;;;;6149800;29;20027;-81
2022/04/15 08:40:31;;;;;;;29.02;17.40;;;;;;;;;;6150481;29;20305;-82
2022/04/15 08:43:31;;;;;;;22.83;15.95;;;;;;;;;;6129641;29;20052;-82
2022/04/15 08:46:31;;;;;;;39.67;25.45;;;;;;;;;;6149608;29;20046;-82
2022/04/15 08:49:32;;;;;;;76.65;44.97;;;;;;;;;;6149609;29;20586;-82
2022/04/15 08:52:32;;;;;;;120.20;75.97;;;;;;;;;;6137007;28;20171;-81
2022/04/15 08:55:33;;;;;;;33.28;21.13;;;;;;;;;;6129443;29;20050;-81
2022/04/15 08:58:33;;;;;;;38.85;26.55;;;;;;;;;;6129505;29;21492;-82
2022/04/15 09:01:34;;;;;;;23.77;15.93;;;;;;;;;;6141453;29;20403;-82
2022/04/15 09:04:34;;;;;;;24.98;14.30;;;;;;;;;;6148279;28;20031;-82
2022/04/15 09:07:35;;;;;;;20.87;15.00;;;;;;;;;;6145541;29;20106;-81
2022/04/15 09:10:35;;;;;;;18.48;11.63;;;;;;;;;;6140165;28;20362;-81
2022/04/15 09:13:40;;;;;;;18.95;13.45;;;;;;;;;;6131112;29;20031;-81
2022/04/15 09:16:47;;;;;;;17.05;10.20;;;;;;;;;;6150063;28;20026;-81
2022/04/15 09:19:47;;;;;;;20.10;13.00;;;;;;;;;;6146185;28;20122;-81
2022/04/15 09:22:52;;;;;;;18.58;12.45;;;;;;;;;;6129576;29;20023;-81
2022/04/15 09:25:52;;;;;;;14.27;8.35;;;;;;;;;;6148675;28;20105;-81
2022/04/15 09:28:56;;;;;;;22.40;12.47;;;;;;;;;;6117252;29;20027;-81
2022/04/15 09:31:56;;;;;;;15.15;9.77;;;;;;;;;;6143655;29;20031;-81
2022/04/15 09:34:59;;;;;;;12.80;8.13;;;;;;;;;;6145819;29;20106;-81
2022/04/15 09:38:03;;;;;;;11.32;7.20;;;;;;;;;;6146482;29;20016;-81
2022/04/15 09:41:18;;;;;;;13.55;7.18;;;;;;;;;;6124652;29;20394;-81
2022/04/15 09:44:19;;;;;;;10.95;5.90;;;;;;;;;;6144974;29;20066;-82
2022/04/15 09:47:21;;;;;;;10.55;6.25;;;;;;;;;;6144961;29;20437;-81
2022/04/15 09:50:28;;;;;;;;;;;;;;;;;;6135343;28;20090;-81
2022/04/15 09:53:32;;;;;;;9.43;5.07;;;;;;;;;;6143007;29;19922;-82
2022/04/15 09:56:33;;;;;;;10.80;4.60;;;;;;;;;;6126328;29;20034;-82
2022/04/15 09:59:34;;;;;;;7.20;4.60;;;;;;;;;;6145724;29;20027;-82
2022/04/15 10:02:35;;;;;;;7.57;4.15;;;;;;;;;;6127648;29;20786;-82
2022/04/15 10:05:36;;;;;;;8.50;4.60;;;;;;;;;;6143640;29;20015;-82
2022/04/15 10:08:39;;;;;;;9.50;4.83;;;;;;;;;;6124808;29;20331;-81
2022/04/15 10:11:43;;;;;;;8.45;4.10;;;;;;;;;;6126225;29;20025;-81
2022/04/15 10:14:43;;;;;;;8.80;5.25;;;;;;;;;;6144559;28;20040;-81
2022/04/15 10:17:44;;;;;;;11.70;5.27;;;;;;;;;;6144829;29;20656;-78
2022/04/15 10:20:44;;;;;;;10.03;6.50;;;;;;;;;;6146156;29;20031;-78
2022/04/15 10:23:44;;;;;;;8.73;5.23;;;;;;;;;;6138928;29;20027;-78
2022/04/15 10:26:45;;;;;;;7.43;4.07;;;;;;;;;;6146062;28;20054;-78
2022/04/15 10:29:59;;;;;;;5.57;4.07;;;;;;;;;;6146381;29;20083;-78
2022/04/15 10:33:00;;;;;;;7.20;3.92;;;;;;;;;;6138852;29;20085;-78
2022/04/15 10:36:20;;;;;;;8.27;5.60;;;;;;;;;;6130455;29;20023;-78
2022/04/15 10:39:22;;;;;;;13.20;5.95;;;;;;;;;;6146578;29;20066;-78
2022/04/15 10:42:30;;;;;;;8.82;4.90;;;;;;;;;;6145731;29;20392;-78
2022/04/15 10:45:34;;;;;;;10.55;4.47;;;;;;;;;;6126651;29;20027;-78
2022/04/15 10:48:36;;;;;;;10.48;5.57;;;;;;;;;;6127746;29;20023;-78
2022/04/15 10:51:36;;;;;;;8.23;5.13;;;;;;;;;;6121641;29;20023;-78
2022/04/15 10:54:36;;;;;;;12.53;5.40;;;;;;;;;;6129199;28;20042;-78
2022/04/15 10:57:40;;;;;;;10.17;6.63;;;;;;;;;;6132384;29;20085;-78
2022/04/15 11:04:02;;;;;;;10.77;4.60;;;;;;;;;;6142561;29;20434;-78
2022/04/15 11:07:14;;;;;;;10.05;6.18;;;;;;;;;;6137050;28;20023;-78
2022/04/15 11:10:33;;;;;;;10.85;7.68;;;;;;;;;;6126223;29;20592;-78
2022/04/15 11:13:39;;;;;;;11.30;6.95;;;;;;;;;;6141040;29;20066;-79
2022/04/15 11:16:40;;;;;;;9.52;6.18;;;;;;;;;;6134732;29;20402;-80
2022/04/15 11:19:40;;;;;;;11.20;5.30;;;;;;;;;;6145032;29;20050;-80
2022/04/15 11:22:41;;;;;;;9.53;5.20;;;;;;;;;;6144740;29;20027;-80
2022/04/15 11:25:42;;;;;;;7.73;5.00;;;;;;;;;;6144551;28;20078;-80
2022/04/15 11:28:43;;;;;;;15.03;7.43;;;;;;;;;;6144386;29;20027;-81
2022/04/15 11:31:46;;;;;;;14.13;6.97;;;;;;;;;;6126062;29;20038;-81
2022/04/15 11:34:46;;;;;;;19.15;11.05;;;;;;;;;;6142061;29;20034;-82
2022/04/15 11:37:46;;;;;;;10.20;7.13;;;;;;;;;;6125133;29;20054;-81
2022/04/15 11:40:46;;;;;;;19.33;9.27;;;;;;;;;;6125640;29;20037;-82
2022/04/15 11:43:47;;;;;;;11.00;4.27;;;;;;;;;;6141124;29;20039;-82
2022/04/15 11:46:49;;;;;;;14.13;6.37;;;;;;;;;;6147600;29;20394;-81
2022/04/15 11:49:51;;;;;;;9.93;6.47;;;;;;;;;;6145156;29;20398;-81
2022/04/15 11:52:51;;;;;;;8.38;5.05;;;;;;;;;;6135961;29;20027;-81
2022/04/15 11:55:52;;;;;;;13.53;7.47;;;;;;;;;;6140694;28;20593;-81
2022/04/15 11:58:53;;;;;;;11.05;6.55;;;;;;;;;;6138956;29;20114;-80
2022/04/15 12:01:53;;;;;;;12.43;7.87;;;;;;;;;;6146994;29;20027;-81
2022/04/15 12:04:54;;;;;;;10.80;7.53;;;;;;;;;;6143338;29;20034;-81
2022/04/15 12:07:55;;;;;;;14.75;8.85;;;;;;;;;;6144303;29;20031;-81
2022/04/15 12:10:55;;;;;;;18.43;11.33;;;;;;;;;;6144200;29;20079;-81
2022/04/15 12:13:57;;;;;;;14.37;7.67;;;;;;;;;;6142392;29;20114;-81
2022/04/15 12:16:57;;;;;;;8.05;4.32;;;;;;;;;;6142079;28;20082;-81
2022/04/15 12:19:58;;;;;;;7.20;4.43;;;;;;;;;;6128125;29;20031;-80
2022/04/15 12:22:58;;;;;;;7.37;5.27;;;;;;;;;;6136110;29;20126;-80
2022/04/15 12:26:06;;;;;;;4.70;2.83;;;;;;;;;;6142502;28;20054;-80
2022/04/15 12:32:32;;;;;;;6.57;2.83;;;;;;;;;;6145073;29;20039;-82
2022/04/15 12:35:33;;;;;;;4.32;2.22;;;;;;;;;;6112723;29;20031;-81
2022/04/15 12:38:52;;;;;;;4.17;2.53;;;;;;;;;;6125767;29;20300;-81
2022/04/15 12:41:52;;;;;;;2.58;1.88;;;;;;;;;;6143188;29;20031;-81
2022/04/15 12:44:52;;;;;;;4.87;2.03;;;;;;;;;;6138050;29;20436;-81
2022/04/15 12:47:59;;;;;;;2.53;1.60;;;;;;;;;;6144363;29;20607;-81
2022/04/15 12:51:01;;;;;;;5.05;2.13;;;;;;;;;;6126459;29;20090;-81
2022/04/15 12:54:01;;;;;;;;;;;;;;;;;;6134184;28;20110;-81
2022/04/15 12:57:01;;;;;;;4.63;2.65;;;;;;;;;;6113474;29;19907;-81
2022/04/15 13:00:04;;;;;;;2.70;1.90;;;;;;;;;;6113164;29;20031;-81
2022/04/15 13:03:04;;;;;;;4.88;2.72;;;;;;;;;;6148730;29;20031;-81
2022/04/15 13:06:05;;;;;;;3.90;2.40;;;;;;;;;;6132017;29;20050;-81
2022/04/15 13:09:06;;;;;;;2.75;2.10;;;;;;;;;;6148601;29;20094;-81
2022/04/15 13:12:06;;;;;;;3.73;2.43;;;;;;;;;;6140666;29;20031;-81
2022/04/15 13:15:07;;;;;;;5.07;2.07;;;;;;;;;;6148335;29;20019;-81
2022/04/15 13:18:07;;;;;;;4.03;1.90;;;;;;;;;;6129353;29;20019;-81
2022/04/15 13:21:07;;;;;;;4.27;2.37;;;;;;;;;;6132081;29;20023;-81
2022/04/15 13:24:08;;;;;;;8.77;3.10;;;;;;;;;;6132696;28;20117;-81
2022/04/15 13:27:08;;;;;;;5.70;3.53;;;;;;;;;;6149559;28;20051;-81
2022/04/15 13:30:08;;;;;;;4.47;2.67;;;;;;;;;;6149690;29;20035;-81
2022/04/15 13:33:09;;;;;;;5.23;3.03;;;;;;;;;;6148530;28;20080;-81
2022/04/15 13:36:09;;;;;;;6.33;2.73;;;;;;;;;;6135468;28;20027;-81
2022/04/15 13:39:09;;;;;;;7.60;3.40;;;;;;;;;;6145879;29;20019;-81
2022/04/15 13:42:10;;;;;;;4.93;2.87;;;;;;;;;;6139028;29;20475;-81
2022/04/15 13:45:10;;;;;;;4.30;2.97;;;;;;;;;;6123600;29;20043;-80
2022/04/15 13:48:11;;;;;;;5.10;3.17;;;;;;;;;;6124485;29;20439;-79
2022/04/15 13:51:11;;;;;;;5.70;3.92;;;;;;;;;;6124404;29;20439;-79
2022/04/15 13:57:30;;;;;;;14.05;6.78;;;;;;;;;;6148977;29;20031;-79
2022/04/15 14:00:30;;;;;;;15.40;8.10;;;;;;;;;;6144867;29;20082;-80
2022/04/15 14:03:33;;;;;;;15.70;7.73;;;;;;;;;;6147709;29;20267;-82
2022/04/15 14:06:34;;;;;;;17.67;10.25;;;;;;;;;;6147847;28;20270;-81
2022/04/15 14:09:34;;;;;;;14.38;9.05;;;;;;;;;;6147062;29;20035;-82
2022/04/15 14:12:37;;;;;;;19.63;12.10;;;;;;;;;;6148811;29;20430;-82
2022/04/15 14:15:37;;;;;;;33.53;19.55;;;;;;;;;;6143649;29;20333;-82
2022/04/15 14:18:38;;;;;;;28.63;18.53;;;;;;;;;;6146949;29;20031;-82
2022/04/15 14:21:39;;;;;;;39.25;23.15;;;;;;;;;;6138428;29;20266;-82
2022/04/15 14:24:39;;;;;;;36.30;22.77;;;;;;;;;;6148763;28;20027;-83
2022/04/15 14:27:39;;;;;;;34.58;19.92;;;;;;;;;;6143980;28;20089;-83
2022/04/15 14:30:40;;;;;;;40.08;18.70;;;;;;;;;;6133126;28;20656;-84
2022/04/15 14:33:41;;;;;;;57.35;25.63;;;;;;;;;;6132128;28;20404;-84
2022/04/15 14:36:41;;;;;;;32.80;17.20;;;;;;;;;;6146748;29;20020;-84
2022/04/15 14:39:41;;;;;;;30.83;15.02;;;;;;;;;;6147414;29;20027;-84
2022/04/15 14:42:41;;;;;;;21.48;11.57;;;;;;;;;;6146926;29;20027;-85
2022/04/15 14:45:42;;;;;;;15.75;9.45;;;;;;;;;;6147776;29;20054;-84
2022/04/15 14:48:46;;;;;;;14.98;7.50;;;;;;;;;;6130573;29;20027;-83
2022/04/15 14:51:47;;;;;;;13.23;7.25;;;;;;;;;;6140649;28;20023;-83
2022/04/15 14:54:48;;;;;;;15.10;8.27;;;;;;;;;;6148358;28;20497;-83
2022/04/15 14:57:48;;;;;;;15.52;7.65;;;;;;;;;;6147901;29;20038;-82
2022/04/15 15:00:49;;;;;;;16.83;8.57;;;;;;;;;;6148008;29;20453;-82
2022/04/15 15:03:49;;;;;;;15.88;7.68;;;;;;;;;;6130575;29;20997;-82
2022/04/15 15:06:49;;;;;;;11.83;7.63;;;;;;;;;;6130809;29;20114;-82
2022/04/15 15:09:49;;;;;;;7.97;5.03;;;;;;;;;;6146492;29;20267;-82
2022/04/15 15:12:50;;;;;;;9.90;5.93;;;;;;;;;;6135176;29;20361;-81
2022/04/15 15:15:50;;;;;;;10.60;6.03;;;;;;;;;;6145572;28;20267;-82
2022/04/15 15:18:51;;;;;;;11.57;5.55;;;;;;;;;;6146714;28;20066;-81
2022/04/15 15:21:51;;;;;;;8.90;5.03;;;;;;;;;;6147426;29;20026;-81
2022/04/15 15:31:30;;;;;;;9.02;4.63;;;;;;;;;;6146684;29;20035;-80
2022/04/15 15:34:30;;;;;;;11.33;5.73;;;;;;;;;;6143029;29;20030;-80
2022/04/15 15:37:31;;;;;;;10.75;4.65;;;;;;;;;;6141561;28;20490;-80
2022/04/15 15:40:31;;;;;;;9.63;5.33;;;;;;;;;;6144985;29;20012;-80
2022/04/15 15:43:32;;;;;;;11.93;7.35;;;;;;;;;;6126273;29;20275;-80
2022/04/15 15:46:32;;;;;;;13.63;6.90;;;;;;;;;;6143889;29;20406;-81
2022/04/15 15:49:32;;;;;;;8.68;4.70;;;;;;;;;;6131199;28;20478;-81
2022/04/15 15:52:32;;;;;;;10.00;5.97;;;;;;;;;;6145496;29;20113;-81
2022/04/15 15:55:33;;;;;;;9.83;5.50;;;;;;;;;;6144745;28;20314;-80
2022/04/15 15:58:33;;;;;;;10.95;5.97;;;;;;;;;;6143607;29;20346;-80
2022/04/15 16:01:34;;;;;;;11.27;5.77;;;;;;;;;;6144897;29;20067;-80
2022/04/15 16:04:34;;;;;;;10.70;6.80;;;;;;;;;;6142530;29;20608;-80
2022/04/15 16:07:35;;;;;;;10.77;6.77;;;;;;;;;;6145670;29;20038;-80
2022/04/15 16:10:35;;;;;;;13.02;8.13;;;;;;;;;;6128276;29;20437;-80
2022/04/15 16:13:36;;;;;;;10.82;6.55;;;;;;;;;;6143245;28;20053;-79
2022/04/15 16:16:36;;;;;;;14.75;7.43;;;;;;;;;;6143747;29;20124;-80
2022/04/15 16:19:36;;;;;;;14.10;7.22;;;;;;;;;;6145164;29;20026;-80
2022/04/15 16:22:38;;;;;;;11.48;6.38;;;;;;;;;;6145686;29;20382;-80
2022/04/15 16:25:39;;;;;;;13.70;7.43;;;;;;;;;;6127640;29;20058;-80
2022/04/15 16:28:39;;;;;;;12.98;7.47;;;;;;;;;;6129063;28;20533;-80
2022/04/15 16:31:42;;;;;;;17.20;9.43;;;;;;;;;;6150123;29;20023;-80
2022/04/15 16:34:42;;;;;;;14.23;8.88;;;;;;;;;;6150299;29;20928;-80
2022/04/15 16:37:43;;;;;;;12.80;7.27;;;;;;;;;;6150577;29;20102;-80
2022/04/15 16:40:43;;;;;;;12.98;7.57;;;;;;;;;;6149907;29;20270;-80
2022/04/15 16:43:44;;;;;;;20.77;10.07;;;;;;;;;;6129275;28;20126;-80
2022/04/15 16:46:50;;;;;;;22.42;12.13;;;;;;;;;;6148782;29;20446;-79
2022/04/15 16:49:50;;;;;;;16.45;8.85;;;;;;;;;;6147999;29;20035;-80
2022/04/15 16:52:53;;;;;;;15.55;8.98;;;;;;;;;;6131659;29;20029;-80
2022/04/15 16:59:12;;;;;;;20.10;11.60;;;;;;;;;;6149565;29;20039;-80
2022/04/15 17:02:12;;;;;;;13.80;9.15;;;;;;;;;;6140485;29;20505;-80
2022/04/15 17:05:12;;;;;;;14.87;8.90;;;;;;;;;;6131308;29;20038;-80
2022/04/15 17:08:12;;;;;;;14.33;7.90;;;;;;;;;;6149032;29;20271;-80
2022/04/15 17:11:13;;;;;;;12.27;7.87;;;;;;;;;;6130941;29;20259;-80
2022/04/15 17:14:13;;;;;;;11.55;7.65;;;;;;;;;;6147029;29;20373;-81
2022/04/15 17:17:13;;;;;;;12.03;7.33;;;;;;;;;;6113475;29;20403;-81
2022/04/15 17:20:13;;;;;;;13.30;8.48;;;;;;;;;;6122185;29;20642;-81
2022/04/15 17:23:14;;;;;;;16.20;8.77;;;;;;;;;;6147003;29;20424;-81
2022/04/15 17:26:15;;;;;;;13.57;7.65;;;;;;;;;;6148550;28;20353;-81
2022/04/15 17:29:15;;;;;;;13.23;8.87;;;;;;;;;;6115262;29;20043;-81
2022/04/15 17:32:15;;;;;;;17.10;9.32;;;;;;;;;;6147742;29;20030;-81
2022/04/15 17:35:16;;;;;;;18.33;9.37;;;;;;;;;;6141163;29;20023;-81
2022/04/15 17:38:17;;;;;;;17.60;10.45;;;;;;;;;;6149509;29;20786;-81
2022/04/15 17:41:17;;;;;;;17.80;9.63;;;;;;;;;;6146695;28;20021;-81
2022/04/15 17:44:17;;;;;;;14.02;8.65;;;;;;;;;;6132152;29;20042;-81
2022/04/15 17:47:18;;;;;;;15.43;9.55;;;;;;;;;;6130337;29;20510;-81
2022/04/15 17:50:18;;;;;;;12.80;8.55;;;;;;;;;;6147214;29;20111;-81
2022/04/15 17:53:19;;;;;;;14.93;8.93;;;;;;;;;;6147399;28;20089;-80
2022/04/15 17:56:19;;;;;;;13.98;8.98;;;;;;;;;;6143867;29;20106;-81
2022/04/15 17:59:19;;;;;;;15.50;9.07;;;;;;;;;;6144950;29;20034;-81
2022/04/15 18:02:20;;;;;;;19.27;8.68;;;;;;;;;;6106588;29;20259;-81
2022/04/15 18:05:20;;;;;;;17.77;9.50;;;;;;;;;;6122622;29;20027;-80
2022/04/15 18:08:20;;;;;;;19.88;11.73;;;;;;;;;;6123766;29;20035;-81